Terminal Aerodrome Forecast
Issued by NWS

Home | Current Version | Previous Version | Text Only | Print | Product List | Glossary On
Versions: 1 2 3 4 5 6 7 8 9 10 11 12 13 14 15 16 17 18 19 20 21 22
087
FTUS42 KMLB 041304 AAA
TAFTIX
TAF AMD
KTIX 041304Z 0413/0512 22010KT 5SM -RA VCTS BKN040CB OVC090
      TEMPO 0413/0416 4SM TSRA BKN020CB BKN060
     FM042000 27008KT P6SM VCSH BKN025 BKN040=

USA.gov is the U.S. government's official web portal to all federal, state and local government web resources and services.